Long Beach, Washington
Current Conditions -  °F | °C
As of 5:55 AM on Saturday 22 Nov 2014 (Local Time) from KAST Reporting Station
Scattered Clouds Scattered Clouds  
Wind Chill: 42°   Ceiling: Unl
Heat Index: 44°   Visibility: 10mi
Dew Point: 42°   Wind: 5mph
Humidity: 93%   Direction: 160°SSE
Pressure: 29.71"   Gusts: NA
Location:  46.35°N, 124.05°W
Report Text: KAST 221355Z AUTO 16004KT 10SM FEW033 SCT060 07/06 A2971 RMK AO2 LTG DSNT NW SLP062 T00670056
Loading
Personal Weather Stations






























Interactive Weather Map New forecast layout! Learn more

10-Day Weather Forecast

Advertisements
Track Severe Weather on mobile